createdAt,value
2019-05-06T00:02:20.702Z,71.95
2019-05-06T00:04:54.216Z,72.48
2019-05-06T00:07:25.934Z,73.55
2019-05-06T00:09:57.847Z,72.79
2019-05-06T00:12:30.308Z,73.04
2019-05-06T00:15:04.001Z,73.56
2019-05-06T00:17:35.316Z,73.61
2019-05-06T00:20:08.998Z,74.05
2019-05-06T00:22:43.501Z,74.22
2019-05-06T00:25:19.008Z,73.92
2019-05-06T00:28:09.725Z,73.79
2019-05-06T00:30:43.946Z,73.39
2019-05-06T00:33:15.561Z,73.44
2019-05-06T00:35:47.272Z,73.07
2019-05-06T00:38:19.952Z,73.39
2019-05-06T00:40:54.388Z,73.01
2019-05-06T00:43:27.381Z,73.24
2019-05-06T00:45:59.005Z,72.96
2019-05-06T00:48:30.984Z,73.27
2019-05-06T00:51:04.513Z,73.08
2019-05-06T00:53:38.452Z,72.67
2019-05-06T00:56:10.468Z,72.52
2019-05-06T00:58:43.606Z,72.12
2019-05-06T01:01:26.357Z,72.45
2019-05-06T01:03:50.949Z,71.51
2019-05-06T01:06:24.653Z,71.85
2019-05-06T01:08:56.627Z,71.71
2019-05-06T01:11:28.089Z,71.44
2019-05-06T01:14:05.150Z,71.16
2019-05-06T01:16:36.796Z,70.86
2019-05-06T01:19:08.426Z,68.82
2019-05-06T01:21:39.929Z,69.25
2019-05-06T01:24:14.589Z,68.10
2019-05-06T01:26:45.988Z,68.10
2019-05-06T01:29:19.138Z,67.78
2019-05-06T01:31:51.014Z,66.58
2019-05-06T01:34:24.473Z,65.08
2019-05-06T01:36:56.898Z,65.72
2019-05-06T01:39:59.553Z,65.50
2019-05-06T01:42:36.505Z,64.81
2019-05-06T01:45:10.071Z,64.48
2019-05-06T01:47:43.746Z,64.34
2019-05-06T01:50:15.664Z,64.21
2019-05-06T01:52:47.714Z,64.32
2019-05-06T01:55:19.174Z,63.93
2019-05-06T01:57:51.124Z,64.24
2019-05-06T02:00:24.955Z,63.67
2019-05-06T02:02:56.769Z,63.54
2019-05-06T02:05:28.317Z,63.46
2019-05-06T02:08:00.447Z,63.59
2019-05-06T02:10:31.897Z,63.72
2019-05-06T02:13:04.302Z,64.52
2019-05-06T02:15:36.538Z,64.67
2019-05-06T02:18:08.459Z,65.27
2019-05-06T02:20:44.529Z,65.67
2019-05-06T02:23:19.387Z,65.23
2019-05-06T02:25:54.003Z,65.71
2019-05-06T02:28:27.924Z,66.49
2019-05-06T02:31:18.936Z,65.90
2019-05-06T02:34:18.259Z,66.81
2019-05-06T02:37:01.781Z,68.33
2019-05-06T02:39:34.211Z,69.24
2019-05-06T02:42:08.437Z,69.09
2019-05-06T02:44:40.158Z,69.28
2019-05-06T02:47:35.120Z,68.92
2019-05-06T02:50:13.281Z,69.02
2019-05-06T02:52:44.404Z,69.29
2019-05-06T02:55:17.083Z,69.04
2019-05-06T02:57:48.838Z,68.98
2019-05-06T03:00:23.908Z,69.49
2019-05-06T03:02:55.640Z,69.09
2019-05-06T03:05:27.270Z,69.25
2019-05-06T03:07:58.897Z,69.71
2019-05-06T03:10:32.923Z,70.24
2019-05-06T03:13:05.042Z,69.47
2019-05-06T03:15:36.888Z,70.66
2019-05-06T03:18:09.193Z,70.57
2019-05-06T03:20:58.230Z,70.08
2019-05-06T03:23:34.670Z,71.73
2019-05-06T03:26:06.843Z,71.25
2019-05-06T03:28:43.734Z,71.41
2019-05-06T03:31:16.387Z,71.47
2019-05-06T03:34:05.964Z,71.28
2019-05-06T03:36:27.047Z,70.60
2019-05-06T03:38:56.380Z,70.29
2019-05-06T03:41:27.971Z,70.37
2019-05-06T03:44:03.179Z,70.12
2019-05-06T03:47:10.211Z,70.12
2019-05-06T03:49:49.603Z,70.18
2019-05-06T03:52:18.558Z,70.18
2019-05-06T03:54:53.679Z,69.92
2019-05-06T03:57:26.461Z,70.53
2019-05-06T04:00:00.213Z,70.07
2019-05-06T04:02:33.620Z,70.50
2019-05-06T04:05:06.475Z,70.14
2019-05-06T04:07:38.238Z,70.55
2019-05-06T04:10:13.349Z,70.13
2019-05-06T04:12:45.964Z,70.36
2019-05-06T04:15:18.083Z,69.56
2019-05-06T04:17:54.280Z,71.54
2019-05-06T04:20:35.210Z,70.05
2019-05-06T04:23:28.737Z,70.12
2019-05-06T04:26:23.970Z,70.12
2019-05-06T04:28:55.083Z,69.86
2019-05-06T04:31:27.509Z,68.79
2019-05-06T04:34:09.963Z,70.36
2019-05-06T04:36:35.100Z,69.85
2019-05-06T04:39:07.587Z,68.70
2019-05-06T04:41:39.448Z,69.34
2019-05-06T04:44:13.934Z,66.82
2019-05-06T04:46:44.670Z,67.64
2019-05-06T04:49:17.958Z,68.00
2019-05-06T04:51:49.495Z,67.55
2019-05-06T04:54:26.185Z,68.32
2019-05-06T04:56:55.246Z,68.18
2019-05-06T04:59:26.885Z,68.48
2019-05-06T05:01:58.572Z,67.48
2019-05-06T05:04:32.430Z,67.33
2019-05-06T05:07:03.873Z,67.04
2019-05-06T05:09:35.601Z,66.72
2019-05-06T05:12:13.473Z,66.15
2019-05-06T05:15:04.160Z,66.03
2019-05-06T05:17:48.560Z,66.89
2019-05-06T05:20:35.910Z,66.91
2019-05-06T05:22:53.413Z,66.17
2019-05-06T05:25:25.677Z,66.52
2019-05-06T05:27:57.493Z,66.92
2019-05-06T05:30:32.822Z,65.33
2019-05-06T05:33:04.787Z,66.77
2019-05-06T05:35:37.860Z,64.65
2019-05-06T05:38:09.527Z,65.61
2019-05-06T05:40:43.002Z,66.85
2019-05-06T05:43:22.810Z,66.34
2019-05-06T05:45:54.863Z,65.54
2019-05-06T05:48:42.752Z,65.12
2019-05-06T05:51:14.498Z,64.72
2019-05-06T05:53:46.178Z,64.70
2019-05-06T05:56:18.594Z,65.45
2019-05-06T05:58:53.517Z,64.96
2019-05-06T06:01:26.394Z,64.91
2019-05-06T06:03:58.775Z,65.25
2019-05-06T06:06:33.013Z,65.00
2019-05-06T06:09:06.435Z,63.43
2019-05-06T06:11:59.958Z,64.02
2019-05-06T06:14:53.387Z,64.21
2019-05-06T06:17:48.841Z,64.03
2019-05-06T06:20:38.877Z,62.95
2019-05-06T06:23:25.663Z,65.11
2019-05-06T06:25:57.226Z,64.72
2019-05-06T06:28:29.231Z,64.65
2019-05-06T06:31:23.203Z,63.67
2019-05-06T06:34:03.660Z,62.65
2019-05-06T06:36:48.098Z,62.63
2019-05-06T06:39:23.077Z,62.46
2019-05-06T06:41:54.901Z,63.56
2019-05-06T06:44:29.811Z,63.65
2019-05-06T06:47:02.093Z,63.98
2019-05-06T06:49:33.858Z,63.58
2019-05-06T06:52:11.288Z,62.08
2019-05-06T06:54:43.603Z,62.08
2019-05-06T06:57:32.290Z,61.05
2019-05-06T07:00:23.598Z,61.01
2019-05-06T07:02:59.935Z,62.36
2019-05-06T07:05:42.438Z,61.25
2019-05-06T07:08:14.873Z,60.72
2019-05-06T07:10:46.451Z,60.72
2019-05-06T07:13:19.202Z,59.93
2019-05-06T07:15:51.987Z,58.92
2019-05-06T07:18:23.751Z,59.98
2019-05-06T07:21:14.121Z,57.46
2019-05-06T07:23:45.802Z,54.79
2019-05-06T07:26:19.045Z,54.63
2019-05-06T07:28:52.685Z,53.63
2019-05-06T07:31:26.732Z,53.62
2019-05-06T07:33:58.284Z,55.20
2019-05-06T07:36:32.244Z,55.05
2019-05-06T07:39:06.413Z,53.51
2019-05-06T07:41:45.921Z,53.76
2019-05-06T07:44:45.295Z,55.14
2019-05-06T07:47:33.122Z,54.43
2019-05-06T07:50:05.955Z,51.17
2019-05-06T07:52:37.967Z,52.08
2019-05-06T07:55:12.029Z,52.52
2019-05-06T19:06:25.029Z,56.31
2019-05-06T19:09:19.034Z,56.72
2019-05-06T19:11:54.301Z,57.33
2019-05-06T19:14:26.906Z,57.57
2019-05-06T19:17:02.580Z,57.88
2019-05-06T19:19:34.977Z,57.62
2019-05-06T19:22:07.009Z,58.09
2019-05-06T19:24:42.313Z,58.26
2019-05-06T19:27:13.677Z,58.41
2019-05-06T19:29:45.488Z,58.37
2019-05-06T19:32:17.356Z,58.47
2019-05-06T19:34:49.128Z,57.94
2019-05-06T19:37:23.104Z,57.77
2019-05-06T19:39:55.024Z,58.26
2019-05-06T19:42:26.751Z,57.78
2019-05-06T19:45:02.337Z,56.54
2019-05-06T19:47:34.202Z,57.68
2019-05-06T19:50:06.630Z,58.03
2019-05-06T19:52:39.275Z,57.62
2019-05-06T19:55:12.320Z,56.68
2019-05-06T19:57:45.020Z,54.60
2019-05-06T20:00:18.187Z,46.79
2019-05-06T20:02:52.158Z,48.29
2019-05-06T20:05:46.157Z,50.20
2019-05-06T20:08:25.664Z,50.90
2019-05-06T20:11:33.077Z,51.63
2019-05-06T20:14:04.863Z,51.34
2019-05-06T20:16:37.001Z,52.78
2019-05-06T20:19:08.660Z,52.06
2019-05-06T20:21:42.418Z,53.03
2019-05-06T20:24:14.387Z,53.50
2019-05-06T20:26:46.289Z,53.89
2019-05-06T20:29:17.913Z,53.57
2019-05-06T20:31:50.014Z,53.57
2019-05-06T20:34:22.603Z,53.69
2019-05-06T20:36:54.460Z,53.32
2019-05-06T20:39:26.130Z,53.74
2019-05-06T20:41:58.296Z,53.61
2019-05-06T20:44:32.423Z,54.31
2019-05-06T20:47:04.109Z,54.19
2019-05-06T20:49:38.718Z,53.83
2019-05-06T20:52:12.277Z,54.09
2019-05-06T20:54:43.889Z,54.04
2019-05-06T20:57:15.519Z,54.11
2019-05-06T20:59:47.345Z,54.38
2019-05-06T21:02:18.977Z,54.67
2019-05-06T21:04:50.791Z,54.60
2019-05-06T21:07:23.122Z,54.44
2019-05-06T21:09:54.972Z,54.68
2019-05-06T21:12:27.027Z,55.14
2019-05-06T21:14:58.580Z,54.40
2019-05-06T21:17:32.287Z,54.62
2019-05-06T21:20:05.041Z,53.95
2019-05-06T21:22:36.729Z,54.07
2019-05-06T21:25:08.947Z,54.43
2019-05-06T21:27:42.397Z,54.66
2019-05-06T21:30:15.912Z,54.22
2019-05-06T21:32:47.637Z,53.87
2019-05-06T21:35:19.479Z,54.28
2019-05-06T21:37:52.960Z,54.41
2019-05-06T21:40:24.847Z,53.87
2019-05-06T21:42:57.297Z,54.38
2019-05-06T21:45:30.355Z,54.80
2019-05-06T21:48:02.829Z,54.37
2019-05-06T21:50:34.925Z,54.88
2019-05-06T21:53:06.660Z,55.10
2019-05-06T21:55:38.634Z,55.32
2019-05-06T21:58:12.266Z,55.31
2019-05-06T22:00:52.717Z,55.42
2019-05-06T22:03:24.895Z,55.98
2019-05-06T22:05:57.519Z,55.80
2019-05-06T22:08:30.011Z,56.14
2019-05-06T22:11:02.893Z,55.84
2019-05-06T22:13:36.095Z,56.47
2019-05-06T22:16:07.596Z,56.40
2019-05-06T22:18:39.560Z,56.38
2019-05-06T22:21:22.488Z,56.20
2019-05-06T22:23:59.432Z,56.80
2019-05-06T22:26:32.443Z,56.77
2019-05-06T22:29:05.295Z,57.35
2019-05-06T22:31:36.996Z,56.53
2019-05-06T22:34:08.674Z,57.21
2019-05-06T22:36:40.388Z,57.11
2019-05-06T22:39:13.617Z,57.13
2019-05-06T22:41:46.183Z,57.63
2019-05-06T22:44:18.626Z,58.26
2019-05-06T22:46:50.286Z,58.32
2019-05-06T22:49:22.868Z,58.08
2019-05-06T22:51:55.416Z,58.02
2019-05-06T22:54:26.928Z,58.84
2019-05-06T22:56:58.705Z,59.12
2019-05-06T22:59:30.289Z,58.80
2019-05-06T23:02:19.627Z,59.87
2019-05-06T23:04:54.379Z,59.72
2019-05-06T23:07:26.438Z,59.96
2019-05-06T23:09:58.232Z,60.28
2019-05-06T23:12:32.446Z,60.24
2019-05-06T23:15:04.646Z,60.61
2019-05-06T23:17:36.321Z,60.98
2019-05-06T23:20:09.123Z,60.60
2019-05-06T23:22:42.635Z,60.95
2019-05-06T23:25:14.560Z,60.49
2019-05-06T23:27:46.472Z,60.10
2019-05-06T23:30:18.499Z,60.68
2019-05-06T23:32:50.241Z,60.54
2019-05-06T23:35:22.249Z,60.24
2019-05-06T23:38:33.768Z,59.19
2019-05-06T23:41:39.202Z,59.91
2019-05-06T23:44:47.404Z,59.31
2019-05-06T23:47:54.874Z,59.42
2019-05-06T23:51:02.371Z,59.56
2019-05-06T23:54:09.727Z,58.94
2019-05-06T23:56:43.418Z,58.51
2019-05-06T23:59:15.864Z,58.52
